Sparta, Missouri
Current Conditions -  °F | °C
As of 8:52 PM on Friday 21 Nov 2014 (Local Time) from KSGF Reporting Station
Haze Haze  
Wind Chill: 36°   Ceiling: 500
Heat Index: 44°   Visibility: 6mi
Dew Point: 41°   Wind: 17mph
Humidity: 89%   Direction: 150°SSE
Pressure: 30.14"   Gusts: 26mph
Location:  37°N, 93.08°W
Report Text: KSGF 220252Z 15015G23KT 6SM BR OVC005 07/05 A3014 RMK AO2 SLP212 T00670050 56002
Loading
Personal Weather Stations






























Interactive Weather Map New forecast layout! Learn more

10-Day Weather Forecast

Advertisements
Track Severe Weather on mobile